createdAt,value
2017-11-15T00:00:50.244Z,94.80
2017-11-15T00:03:17.682Z,94.90
2017-11-15T00:05:44.433Z,94.60
2017-11-15T00:08:11.124Z,94.50
2017-11-15T00:10:38.506Z,94.50
2017-11-15T00:13:05.991Z,94.90
2017-11-15T00:15:32.674Z,94.60
2017-11-15T00:17:59.338Z,94.60
2017-11-15T00:20:26.028Z,94.80
2017-11-15T00:22:52.715Z,94.80
2017-11-15T00:25:19.413Z,94.70
2017-11-15T00:27:46.084Z,94.70
2017-11-15T00:30:13.491Z,94.70
2017-11-15T00:32:40.190Z,94.70
2017-11-15T00:35:07.164Z,94.80
2017-11-15T00:37:33.950Z,94.70
2017-11-15T00:40:00.731Z,94.90
2017-11-15T00:42:27.487Z,94.90
2017-11-15T00:44:54.181Z,95.10
2017-11-15T00:47:20.933Z,95.10
2017-11-15T00:49:47.730Z,95.00
2017-11-15T00:52:15.047Z,94.80
2017-11-15T00:54:42.520Z,94.50
2017-11-15T00:57:09.956Z,94.50
2017-11-15T00:59:36.628Z,94.60
2017-11-15T01:02:04.027Z,94.60
2017-11-15T01:04:30.723Z,94.60
2017-11-15T01:06:58.169Z,94.90
2017-11-15T01:09:24.821Z,94.80
2017-11-15T01:11:52.247Z,94.90
2017-11-15T01:14:19.297Z,94.90
2017-11-15T01:16:46.911Z,94.80
2017-11-15T01:19:14.347Z,95.00
2017-11-15T01:21:41.084Z,95.00
2017-11-15T01:24:07.743Z,94.80
2017-11-15T01:26:35.184Z,94.80
2017-11-15T01:29:02.932Z,94.80
2017-11-15T01:31:29.599Z,94.70
2017-11-15T01:33:56.291Z,95.10
2017-11-15T01:36:23.000Z,95.00
2017-11-15T01:38:50.439Z,95.40
2017-11-15T01:41:17.144Z,95.40
2017-11-15T01:43:43.908Z,95.20
2017-11-15T01:46:10.634Z,95.30
2017-11-15T01:48:37.359Z,95.30
2017-11-15T01:51:05.180Z,95.90
2017-11-15T01:53:31.914Z,95.90
2017-11-15T01:55:58.609Z,95.80
2017-11-15T01:58:26.135Z,96.00
2017-11-15T02:01:11.005Z,96.00
2017-11-15T02:03:37.728Z,96.40
2017-11-15T02:06:04.455Z,96.50
2017-11-15T02:08:31.115Z,97.10
2017-11-15T02:10:57.845Z,97.40
2017-11-15T02:13:24.571Z,97.40
2017-11-15T02:15:51.271Z,97.30
2017-11-15T02:18:17.987Z,97.10
2017-11-15T02:20:45.763Z,96.90
2017-11-15T02:23:12.500Z,96.70
2017-11-15T02:25:39.298Z,96.50
2017-11-15T02:28:07.865Z,97.00
2017-11-15T02:30:34.633Z,97.00
2017-11-15T02:33:02.203Z,96.80
2017-11-15T02:35:29.671Z,96.60
2017-11-15T02:37:56.434Z,96.60
2017-11-15T02:40:23.255Z,96.60
2017-11-15T02:42:50.812Z,96.60
2017-11-15T02:45:18.308Z,96.40
2017-11-15T02:47:45.116Z,96.40
2017-11-15T02:50:12.265Z,96.30
2017-11-15T02:52:39.757Z,96.30
2017-11-15T02:55:06.477Z,96.20
2017-11-15T02:57:34.025Z,96.30
2017-11-15T03:00:00.734Z,96.30
2017-11-15T03:02:27.547Z,96.30
2017-11-15T03:04:54.247Z,96.30
2017-11-15T03:07:20.965Z,96.10
2017-11-15T03:09:47.770Z,96.00
2017-11-15T03:12:15.165Z,95.90
2017-11-15T03:14:41.867Z,95.90
2017-11-15T03:17:09.303Z,95.90
2017-11-15T03:19:35.961Z,95.90
2017-11-15T03:22:03.433Z,96.00
2017-11-15T03:24:30.917Z,96.00
2017-11-15T03:26:57.549Z,96.00
2017-11-15T03:29:24.278Z,96.00
2017-11-15T03:31:51.708Z,96.00
2017-11-15T03:34:18.395Z,96.00
2017-11-15T03:36:46.770Z,95.90
2017-11-15T03:39:14.204Z,96.00
2017-11-15T03:41:40.977Z,96.00
2017-11-15T03:44:07.661Z,96.00
2017-11-15T03:46:34.356Z,96.10
2017-11-15T03:49:01.767Z,96.00
2017-11-15T03:51:28.439Z,96.00
2017-11-15T03:53:55.131Z,96.20
2017-11-15T03:56:21.806Z,96.20
2017-11-15T03:58:48.472Z,96.00
2017-11-15T04:01:15.897Z,96.10
2017-11-15T04:03:42.550Z,96.10
2017-11-15T04:06:09.227Z,96.20
2017-11-15T04:08:36.709Z,96.00
2017-11-15T04:11:04.156Z,96.00
2017-11-15T04:13:31.562Z,95.70
2017-11-15T04:15:58.240Z,95.70
2017-11-15T04:18:24.923Z,96.30
2017-11-15T04:20:52.029Z,96.20
2017-11-15T04:23:18.751Z,95.90
2017-11-15T04:25:46.166Z,95.70
2017-11-15T04:28:12.843Z,95.70
2017-11-15T04:30:39.523Z,95.80
2017-11-15T04:33:06.299Z,95.90
2017-11-15T04:35:33.006Z,95.90
2017-11-15T04:38:00.060Z,95.80
2017-11-15T04:40:26.736Z,95.90
2017-11-15T04:42:54.269Z,96.10
2017-11-15T04:45:21.004Z,96.00
2017-11-15T04:47:47.723Z,95.80
2017-11-15T04:50:15.141Z,95.40
2017-11-15T04:52:42.569Z,95.40
2017-11-15T04:55:09.227Z,95.40
2017-11-15T04:57:36.662Z,95.40
2017-11-15T05:00:03.716Z,95.40
2017-11-15T05:02:30.386Z,95.50
2017-11-15T05:04:57.781Z,95.50
2017-11-15T05:07:24.453Z,95.50
2017-11-15T05:09:51.140Z,95.60
2017-11-15T05:12:17.818Z,95.70
2017-11-15T05:14:44.502Z,95.70
2017-11-15T05:17:11.161Z,95.70
2017-11-15T05:19:38.666Z,95.80
2017-11-15T05:22:05.460Z,95.70
2017-11-15T05:24:32.922Z,95.70
2017-11-15T05:27:00.366Z,95.70
2017-11-15T05:29:27.116Z,95.70
2017-11-15T05:31:53.898Z,95.70
2017-11-15T05:34:20.547Z,95.90
2017-11-15T05:36:47.243Z,95.70
2017-11-15T05:39:14.938Z,96.10
2017-11-15T05:41:42.327Z,95.90
2017-11-15T05:44:09.032Z,95.80
2017-11-15T05:46:36.428Z,96.10
2017-11-15T05:49:03.119Z,96.10
2017-11-15T05:51:29.848Z,96.00
2017-11-15T05:53:56.623Z,95.90
2017-11-15T05:56:24.106Z,96.00
2017-11-15T05:58:50.802Z,95.90
2017-11-15T06:01:17.468Z,95.90
2017-11-15T06:03:44.895Z,95.70
2017-11-15T06:06:11.599Z,95.70
2017-11-15T06:08:39.191Z,95.50
2017-11-15T06:11:05.940Z,95.50
2017-11-15T06:13:33.371Z,96.00
2017-11-15T06:15:59.995Z,95.70
2017-11-15T06:18:26.704Z,96.10
2017-11-15T06:20:53.369Z,96.10
2017-11-15T06:23:20.845Z,96.00
2017-11-15T06:25:47.613Z,96.00
2017-11-15T06:28:14.972Z,96.10
2017-11-15T06:30:41.718Z,95.80
2017-11-15T06:33:08.364Z,95.90
2017-11-15T06:35:35.048Z,97.80
2017-11-15T06:38:01.715Z,99.90
2017-11-15T06:40:28.374Z,99.90
2017-11-15T06:42:55.054Z,99.90
2017-11-15T06:45:21.722Z,99.90
2017-11-15T06:47:48.351Z,87.80
2017-11-15T06:50:15.048Z,64.90
2017-11-15T06:52:41.694Z,56.00
2017-11-15T06:55:08.399Z,46.20
2017-11-15T06:57:35.076Z,43.50
2017-11-15T07:00:01.740Z,39.70
2017-11-15T07:02:28.428Z,36.70
2017-11-15T07:04:55.151Z,34.70
2017-11-15T07:07:24.736Z,31.60
2017-11-15T07:09:51.525Z,32.60
2017-11-15T07:12:18.211Z,32.20
2017-11-15T07:14:44.885Z,30.80
2017-11-15T07:17:11.581Z,31.10
2017-11-15T07:19:38.274Z,29.60
2017-11-15T07:22:04.968Z,29.50
2017-11-15T07:24:31.608Z,28.60
2017-11-15T07:26:58.272Z,29.40
2017-11-15T07:29:24.896Z,30.50
2017-11-15T07:31:51.552Z,31.60
2017-11-15T07:34:18.228Z,33.80
2017-11-15T07:36:44.892Z,36.00
2017-11-15T07:39:11.542Z,39.30
2017-11-15T07:41:38.973Z,37.00
2017-11-15T07:44:05.625Z,36.90
2017-11-15T07:46:32.313Z,35.70
2017-11-15T07:48:59.032Z,34.70
2017-11-15T07:51:26.436Z,35.00
2017-11-15T07:53:53.151Z,35.00
2017-11-15T07:56:19.836Z,38.00
2017-11-15T07:58:46.540Z,42.00
2017-11-15T08:01:13.189Z,44.40
2017-11-15T08:03:39.894Z,46.60
2017-11-15T08:06:06.579Z,49.90
2017-11-15T08:08:33.257Z,50.70
2017-11-15T08:11:00.098Z,51.50
2017-11-15T08:13:26.772Z,52.90
2017-11-15T08:15:54.190Z,53.80
2017-11-15T08:18:20.884Z,53.80
2017-11-15T08:20:48.314Z,53.60
2017-11-15T08:23:14.986Z,53.60
2017-11-15T08:25:42.428Z,54.70
2017-11-15T08:28:09.135Z,54.70
2017-11-15T08:30:35.838Z,55.20
2017-11-15T08:33:03.312Z,53.90
2017-11-15T08:35:29.992Z,53.90
2017-11-15T08:37:56.720Z,54.70
2017-11-15T08:40:23.454Z,56.40
2017-11-15T08:42:50.136Z,56.40
2017-11-15T08:45:16.864Z,57.20
2017-11-15T08:47:43.590Z,57.80
2017-11-15T08:50:10.320Z,58.70
2017-11-15T08:52:37.079Z,58.90
2017-11-15T08:55:03.860Z,58.50
2017-11-15T08:57:30.590Z,57.20
2017-11-15T08:59:57.300Z,56.20
2017-11-15T09:02:24.009Z,56.90
2017-11-15T09:04:50.694Z,57.70
2017-11-15T09:07:18.019Z,56.90
2017-11-15T09:09:44.782Z,55.90
2017-11-15T09:12:11.484Z,54.20
2017-11-15T09:14:38.190Z,54.20
2017-11-15T09:17:05.676Z,53.70
2017-11-15T09:19:32.348Z,54.20
2017-11-15T09:21:59.049Z,53.00
2017-11-15T09:24:25.716Z,51.20
2017-11-15T09:26:52.416Z,51.80
2017-11-15T09:29:19.156Z,50.80
2017-11-15T09:31:45.856Z,50.60
2017-11-15T09:34:12.527Z,50.10
2017-11-15T09:36:40.018Z,50.20
2017-11-15T09:39:07.751Z,50.20
2017-11-15T09:41:35.211Z,50.70
2017-11-15T09:44:02.703Z,50.20
2017-11-15T09:46:30.396Z,50.20
2017-11-15T09:48:57.042Z,51.80
2017-11-15T09:51:23.793Z,51.10
2017-11-15T09:53:50.493Z,50.80
2017-11-15T09:56:17.184Z,50.60
2017-11-15T09:58:43.845Z,50.70
2017-11-15T10:01:10.585Z,51.30
2017-11-15T10:03:37.261Z,51.80
2017-11-15T10:06:03.932Z,53.10
2017-11-15T10:08:31.386Z,53.80
2017-11-15T10:10:58.054Z,54.50
2017-11-15T10:13:25.626Z,54.60
2017-11-15T10:15:52.355Z,54.80
2017-11-15T10:18:19.059Z,54.10
2017-11-15T10:20:45.741Z,54.60
2017-11-15T10:23:12.421Z,54.40
2017-11-15T10:25:39.857Z,54.00
2017-11-15T10:28:06.530Z,54.00
2017-11-15T10:30:33.964Z,53.90
2017-11-15T10:33:00.639Z,53.90
2017-11-15T10:35:28.055Z,53.90
2017-11-15T10:37:54.745Z,53.90
2017-11-15T10:40:22.181Z,53.60
2017-11-15T10:42:48.833Z,53.50
2017-11-15T10:45:16.304Z,53.00
2017-11-15T10:47:45.706Z,52.40
2017-11-15T10:50:13.117Z,52.60
2017-11-15T10:52:39.829Z,52.60
2017-11-15T10:55:06.495Z,52.90
2017-11-15T10:57:33.163Z,51.90
2017-11-15T10:59:59.994Z,51.00
2017-11-15T11:02:26.719Z,51.10
2017-11-15T11:04:53.479Z,50.70
2017-11-15T11:07:20.225Z,50.00
2017-11-15T11:09:46.925Z,48.80
2017-11-15T11:12:13.598Z,48.90
2017-11-15T11:14:41.254Z,49.50
2017-11-15T11:17:07.948Z,48.70
2017-11-15T11:19:34.632Z,47.70
2017-11-15T11:22:01.361Z,46.70
2017-11-15T11:24:28.857Z,47.70
2017-11-15T11:26:55.568Z,47.70
2017-11-15T11:29:23.024Z,47.40
2017-11-15T11:31:50.434Z,47.40
2017-11-15T11:34:17.159Z,47.40
2017-11-15T11:36:43.850Z,49.00
2017-11-15T11:39:10.512Z,48.70
2017-11-15T11:41:37.955Z,46.70
2017-11-15T11:44:04.706Z,46.60
2017-11-15T11:46:32.117Z,45.50
2017-11-15T11:48:58.782Z,45.50
2017-11-15T11:51:25.530Z,46.60
2017-11-15T11:53:52.230Z,46.30
2017-11-15T11:56:18.921Z,45.60
2017-11-15T11:58:45.658Z,45.70
2017-11-15T12:01:12.492Z,44.90
2017-11-15T12:03:39.200Z,45.50
2017-11-15T12:06:06.685Z,44.10
2017-11-15T12:08:33.382Z,44.10
2017-11-15T12:11:00.055Z,44.20
2017-11-15T12:13:26.835Z,44.90
2017-11-15T12:15:54.377Z,46.10
2017-11-15T12:18:21.115Z,46.10
2017-11-15T12:20:47.841Z,46.70
2017-11-15T12:23:14.524Z,47.50
2017-11-15T12:25:41.209Z,48.00
2017-11-15T12:28:08.670Z,48.80
2017-11-15T12:30:36.108Z,48.80
2017-11-15T12:33:02.857Z,48.80
2017-11-15T12:35:29.598Z,48.90
2017-11-15T12:37:56.344Z,49.30
2017-11-15T12:40:23.015Z,49.60
2017-11-15T12:42:50.436Z,48.40
2017-11-15T12:45:17.173Z,48.40
2017-11-15T12:47:43.848Z,48.40
2017-11-15T12:50:10.606Z,48.50
2017-11-15T12:52:38.028Z,48.20
2017-11-15T12:55:04.725Z,48.10
2017-11-15T12:57:31.435Z,47.30
2017-11-15T12:59:58.903Z,47.70
2017-11-15T13:02:26.323Z,47.30
2017-11-15T13:04:53.033Z,47.30
2017-11-15T13:07:19.713Z,47.10
2017-11-15T13:09:46.393Z,48.20
2017-11-15T13:12:13.839Z,48.20
2017-11-15T13:14:40.531Z,48.10
2017-11-15T13:17:07.294Z,47.80
2017-11-15T13:19:34.104Z,46.80
2017-11-15T13:22:01.571Z,46.90
2017-11-15T13:24:28.303Z,46.90
2017-11-15T13:26:55.026Z,47.00
2017-11-15T13:29:21.749Z,49.00
2017-11-15T13:31:49.466Z,48.60
2017-11-15T13:34:16.219Z,49.20
2017-11-15T13:36:42.968Z,48.70
2017-11-15T13:39:09.657Z,48.20
2017-11-15T13:41:36.360Z,48.50
2017-11-15T13:44:03.143Z,49.40
2017-11-15T13:46:29.840Z,49.00
2017-11-15T13:48:56.531Z,49.20
2017-11-15T13:51:23.214Z,49.60
2017-11-15T13:53:49.883Z,49.20
2017-11-15T13:56:16.583Z,50.70
2017-11-15T13:58:44.013Z,50.70
2017-11-15T14:01:11.616Z,50.70
2017-11-15T14:03:39.069Z,51.10
2017-11-15T14:06:06.504Z,50.70
2017-11-15T14:08:33.157Z,50.70
2017-11-15T14:11:00.859Z,51.40
2017-11-15T14:13:28.268Z,51.70
2017-11-15T14:15:54.989Z,51.70
2017-11-15T14:18:22.477Z,51.70
2017-11-15T14:20:49.134Z,51.70
2017-11-15T14:23:15.800Z,52.50
2017-11-15T14:25:43.237Z,52.30
2017-11-15T14:28:09.901Z,52.30
2017-11-15T14:30:37.298Z,52.40
2017-11-15T14:33:03.984Z,52.30
2017-11-15T14:35:31.427Z,51.30
2017-11-15T14:37:58.194Z,51.30
2017-11-15T14:40:24.860Z,51.20
2017-11-15T14:42:51.532Z,50.90
2017-11-15T14:45:18.207Z,51.20
2017-11-15T14:47:44.950Z,51.00
2017-11-15T14:50:11.635Z,51.40
2017-11-15T14:52:38.384Z,51.80
2017-11-15T14:55:05.077Z,52.60
2017-11-15T14:57:31.765Z,53.30
2017-11-15T14:59:58.487Z,55.10
2017-11-15T15:02:25.307Z,53.80
2017-11-15T15:04:51.979Z,54.50
2017-11-15T15:07:19.395Z,56.50
2017-11-15T15:09:46.099Z,56.50
2017-11-15T15:12:13.741Z,57.80
2017-11-15T15:14:40.412Z,58.30
2017-11-15T15:17:07.216Z,58.60
2017-11-15T15:19:33.934Z,59.60
2017-11-15T15:22:01.364Z,62.40
2017-11-15T15:24:28.100Z,62.40
2017-11-15T15:26:55.602Z,63.20
2017-11-15T15:29:22.326Z,63.80
2017-11-15T15:31:49.048Z,64.90
2017-11-15T15:34:15.713Z,65.60
2017-11-15T15:36:42.414Z,66.20
2017-11-15T15:39:09.097Z,67.20
2017-11-15T15:41:35.803Z,70.20
2017-11-15T15:44:03.331Z,71.80
2017-11-15T15:46:30.091Z,70.80
2017-11-15T15:48:56.818Z,72.40
2017-11-15T15:51:23.506Z,74.00
2017-11-15T15:53:50.936Z,74.60
2017-11-15T15:56:17.600Z,74.60
2017-11-15T15:58:45.014Z,77.50
2017-11-15T16:01:11.696Z,77.50
2017-11-15T16:03:38.389Z,76.90
2017-11-15T16:06:05.105Z,76.80
2017-11-15T16:08:31.832Z,76.40
2017-11-15T16:10:59.285Z,77.10
2017-11-15T16:13:26.699Z,78.80
2017-11-15T16:15:53.405Z,78.30
2017-11-15T16:18:20.845Z,79.40
2017-11-15T16:20:47.505Z,79.30
2017-11-15T16:23:15.065Z,80.80
2017-11-15T16:25:42.523Z,82.10
2017-11-15T16:28:10.049Z,82.60
2017-11-15T16:30:36.756Z,82.60
2017-11-15T16:33:03.475Z,82.80
2017-11-15T16:35:30.919Z,84.70
2017-11-15T16:37:57.624Z,84.60
2017-11-15T16:40:24.296Z,84.30
2017-11-15T16:42:51.063Z,84.50
2017-11-15T16:45:18.571Z,84.60
2017-11-15T16:47:45.256Z,85.30
2017-11-15T16:50:11.951Z,85.10
2017-11-15T16:52:38.720Z,87.00
2017-11-15T16:55:05.440Z,88.90
2017-11-15T16:57:32.176Z,89.10
2017-11-15T16:59:58.878Z,90.00
2017-11-15T17:02:25.680Z,89.80
2017-11-15T17:04:52.386Z,90.10
2017-11-15T17:07:19.860Z,88.80
2017-11-15T17:09:46.674Z,88.70
2017-11-15T17:12:13.389Z,87.40
2017-11-15T17:14:40.112Z,87.00
2017-11-15T17:17:06.841Z,85.50
2017-11-15T17:19:33.549Z,85.20
2017-11-15T17:22:00.255Z,84.80
2017-11-15T17:24:26.960Z,84.20
2017-11-15T17:26:53.676Z,84.00
2017-11-15T17:29:20.433Z,82.10
2017-11-15T17:31:47.916Z,81.70
2017-11-15T17:34:14.629Z,81.10
2017-11-15T17:36:41.348Z,80.50
2017-11-15T17:39:08.041Z,80.90
2017-11-15T17:41:34.860Z,80.50
2017-11-15T17:44:01.581Z,79.90
2017-11-15T17:46:28.395Z,80.00
2017-11-15T17:48:55.180Z,79.90
2017-11-15T17:51:21.936Z,79.10
2017-11-15T17:53:48.623Z,79.50
2017-11-15T17:56:15.338Z,79.40
2017-11-15T17:58:42.793Z,79.60
2017-11-15T18:01:09.497Z,79.60
2017-11-15T18:03:36.415Z,79.50
2017-11-15T18:06:03.110Z,78.70
2017-11-15T18:08:29.803Z,78.20
2017-11-15T18:10:56.520Z,77.10
2017-11-15T18:13:23.192Z,76.80
2017-11-15T18:15:49.869Z,76.80
2017-11-15T18:18:16.622Z,76.70
2017-11-15T18:20:43.344Z,76.60
2017-11-15T18:23:10.051Z,76.30
2017-11-15T18:25:37.498Z,77.40
2017-11-15T18:28:04.923Z,77.50
2017-11-15T18:30:31.619Z,76.70
2017-11-15T18:32:59.065Z,75.60
2017-11-15T18:35:25.761Z,75.60
2017-11-15T18:37:52.481Z,76.00
2017-11-15T18:40:19.157Z,74.70
2017-11-15T18:42:45.828Z,75.00
2017-11-15T18:45:12.565Z,74.90
2017-11-15T18:47:39.272Z,74.70
2017-11-15T18:50:05.983Z,74.80
2017-11-15T18:52:32.736Z,75.00
2017-11-15T18:54:59.408Z,74.70
2017-11-15T18:57:26.129Z,75.00
2017-11-15T18:59:52.801Z,74.90
2017-11-15T19:02:19.475Z,74.80
2017-11-15T19:04:46.946Z,74.90
2017-11-15T19:07:14.412Z,75.00
2017-11-15T19:09:41.841Z,74.50
2017-11-15T19:12:08.582Z,74.50
2017-11-15T19:14:35.267Z,73.70
2017-11-15T19:17:01.992Z,73.00
2017-11-15T19:19:29.449Z,73.50
2017-11-15T19:21:56.177Z,73.20
2017-11-15T19:24:23.947Z,73.50
2017-11-15T19:26:52.660Z,72.10
2017-11-15T19:29:20.375Z,71.90
2017-11-15T19:31:47.049Z,72.30
2017-11-15T19:34:13.789Z,72.30
2017-11-15T19:36:40.488Z,72.90
2017-11-15T19:39:07.312Z,73.00
2017-11-15T19:41:34.797Z,74.40
2017-11-15T19:44:01.513Z,74.30
2017-11-15T19:46:28.275Z,73.50
2017-11-15T19:48:55.068Z,73.00
2017-11-15T19:51:21.786Z,72.90
2017-11-15T19:53:48.516Z,73.50
2017-11-15T19:56:15.319Z,72.90
2017-11-15T19:58:41.996Z,72.80
2017-11-15T20:01:08.703Z,73.40
2017-11-15T20:03:35.406Z,73.90
2017-11-15T20:06:02.068Z,73.00
2017-11-15T20:08:28.852Z,72.80
2017-11-15T20:10:56.251Z,72.50
2017-11-15T20:13:22.983Z,72.50
2017-11-15T20:15:49.684Z,73.50
2017-11-15T20:18:16.382Z,73.20
2017-11-15T20:20:43.161Z,72.00
2017-11-15T20:23:09.931Z,72.10
2017-11-15T20:25:37.619Z,72.80
2017-11-15T20:28:04.285Z,73.00
2017-11-15T20:30:31.768Z,72.50
2017-11-15T20:32:58.497Z,71.90
2017-11-15T20:35:25.751Z,71.70
2017-11-15T20:37:53.233Z,71.10
2017-11-15T20:40:19.965Z,71.50
2017-11-15T20:42:47.004Z,70.80
2017-11-15T20:45:13.723Z,70.70
2017-11-15T20:47:40.525Z,70.80
2017-11-15T20:50:07.315Z,71.00
2017-11-15T20:52:34.057Z,71.40
2017-11-15T20:55:00.745Z,71.30
2017-11-15T20:57:27.635Z,71.70
2017-11-15T20:59:55.337Z,71.60
2017-11-15T21:02:22.024Z,71.60
2017-11-15T21:04:48.779Z,71.10
2017-11-15T21:07:15.512Z,71.30
2017-11-15T21:09:42.226Z,72.00
2017-11-15T21:12:08.959Z,71.50
2017-11-15T21:14:35.641Z,71.90
2017-11-15T21:17:02.368Z,72.90
2017-11-15T21:19:29.072Z,73.40
2017-11-15T21:21:56.523Z,73.00
2017-11-15T21:24:23.980Z,73.00
2017-11-15T21:26:51.435Z,73.30
2017-11-15T21:29:18.478Z,73.30
2017-11-15T21:31:45.375Z,73.20
2017-11-15T21:34:12.092Z,73.30
2017-11-15T21:36:38.886Z,73.30
2017-11-15T21:39:06.572Z,72.80
2017-11-15T21:41:33.243Z,72.30
2017-11-15T21:44:03.040Z,71.50
2017-11-15T21:46:29.709Z,72.00
2017-11-15T21:48:56.461Z,71.60
2017-11-15T21:51:23.151Z,71.20
2017-11-15T21:53:49.820Z,71.40
2017-11-15T21:56:16.545Z,71.30
2017-11-15T21:58:43.227Z,72.10
2017-11-15T22:01:10.679Z,72.10
2017-11-15T22:03:39.910Z,72.00
2017-11-15T22:18:10.247Z,67.80
2017-11-15T22:28:38.476Z,67.60
2017-11-15T22:34:12.106Z,66.90
2017-11-15T22:36:39.664Z,65.70
2017-11-15T22:39:07.752Z,65.90
2017-11-15T22:41:35.565Z,65.80
2017-11-15T22:44:05.770Z,66.10
2017-11-15T22:49:06.724Z,66.40
2017-11-15T22:51:38.917Z,66.40
2017-11-15T22:54:06.707Z,67.00
2017-11-15T22:56:33.501Z,67.10
2017-11-15T22:59:00.245Z,66.90
2017-11-15T23:01:26.956Z,65.50
2017-11-15T23:03:54.392Z,65.20
2017-11-15T23:06:21.099Z,64.40
2017-11-15T23:08:47.815Z,67.30
2017-11-15T23:11:14.508Z,67.20
2017-11-15T23:13:41.270Z,68.40
2017-11-15T23:16:08.934Z,69.30
2017-11-15T23:18:35.673Z,70.60
2017-11-15T23:21:02.435Z,71.40
2017-11-15T23:23:29.910Z,72.00
2017-11-15T23:25:56.686Z,72.00
2017-11-15T23:28:23.371Z,72.70
2017-11-15T23:30:50.043Z,73.40
2017-11-15T23:33:17.480Z,75.00
2017-11-15T23:35:44.948Z,76.40
2017-11-15T23:38:11.619Z,76.40
2017-11-15T23:40:38.811Z,76.50
2017-11-15T23:43:05.496Z,77.10
2017-11-15T23:45:33.095Z,76.50
2017-11-15T23:47:59.764Z,76.70
2017-11-15T23:50:26.491Z,76.70
2017-11-15T23:52:53.348Z,76.80
2017-11-15T23:55:20.019Z,76.00
2017-11-15T23:57:46.862Z,76.20
